Time;durP1;ratioP1;P1;durP2;ratioP2;P2;SDS_P1;SDS_P2;PMS_P1;PMS_P2;Temp;Humidity;BMP_temperature;BMP_pressure;BME280_temperature;BME280_humidity;BME280_pressure;Samples;Min_cycle;Max_cycle;Signal;HPM_P1;HPM_P2
2023/09/05 00:04:48;;;;;;;3.50;2.22;;;;;;;15.35;100.00;152544.97;10502691;28;20491;-80
2023/09/05 00:09:50;;;;;;;4.35;2.60;;;;;;;15.48;100.00;152577.38;10503984;28;20064;-80
2023/09/05 00:14:52;;;;;;;2.42;2.22;;;;;;;15.36;100.00;152548.88;10509478;28;20070;-79
2023/09/05 00:19:55;;;;;;;2.35;2.15;;;;;;;15.41;100.00;152559.25;10511424;28;20040;-79
2023/09/05 00:24:57;;;;;;;4.55;2.83;;;;;;;15.37;100.00;152550.19;10508903;28;20056;-79
2023/09/05 00:29:59;;;;;;;4.13;2.53;;;;;;;15.54;100.00;152592.94;10511678;28;20521;-79
2023/09/05 00:35:02;;;;;;;2.20;2.00;;;;;;;15.41;100.00;152560.53;10509845;28;20044;-79
2023/09/05 00:40:04;;;;;;;2.13;1.92;;;;;;;15.33;100.00;152541.09;10520156;28;20040;-79
2023/09/05 00:45:06;;;;;;;3.08;2.67;;;;;;;15.18;100.00;152502.19;10523189;28;20068;-80
2023/09/05 00:50:09;;;;;;;2.53;2.33;;;;;;;15.20;100.00;152507.41;10520687;28;20048;-78
2023/09/05 00:55:11;;;;;;;3.28;2.67;;;;;;;14.94;100.00;152441.34;10519385;28;20048;-79
2023/09/05 01:00:14;;;;;;;5.22;3.40;;;;;;;14.86;100.00;152420.59;10518575;28;20059;-79
2023/09/05 01:05:15;;;;;;;3.38;3.00;;;;;;;14.94;100.00;152441.34;10515782;28;20041;-80
2023/09/05 01:10:24;;;;;;;2.35;2.15;;;;;;;14.89;100.00;152429.69;10510673;28;20423;-79
2023/09/05 01:15:25;;;;;;;3.00;2.20;;;;;;;14.87;100.00;152423.19;10513753;28;20391;-81
2023/09/05 01:20:38;;;;;;;3.28;2.50;;;;;;;14.86;100.00;152420.59;10519094;28;20043;-80
2023/09/05 01:25:42;;;;;;;2.83;2.15;;;;;;;14.89;100.00;152429.69;10515756;28;20049;-80
2023/09/05 01:30:45;;;;;;;2.88;2.47;;;;;;;14.85;100.00;152418.03;10513176;28;20052;-80
2023/09/05 01:35:46;;;;;;;2.97;2.78;;;;;;;14.80;100.00;152405.06;10514518;28;20101;-80
2023/09/05 01:40:48;;;;;;;2.40;2.20;;;;;;;14.66;100.00;152370.13;10520306;28;20036;-80
2023/09/05 01:45:50;;;;;;;2.60;2.40;;;;;;;14.60;100.00;152354.53;10523795;28;20052;-79
2023/09/05 01:50:52;;;;;;;2.20;2.00;;;;;;;14.75;100.00;152393.44;10518946;28;20053;-80
2023/09/05 01:55:53;;;;;;;2.30;2.10;;;;;;;14.70;100.00;152379.16;10516171;28;20059;-80
2023/09/05 02:00:56;;;;;;;2.67;2.35;;;;;;;14.58;100.00;152350.69;10514162;28;20048;-79
2023/09/05 02:05:57;;;;;;;2.80;2.42;;;;;;;14.57;100.00;152346.81;10519725;28;20086;-80
2023/09/05 02:10:59;;;;;;;3.15;2.15;;;;;;;14.55;100.00;152342.91;10520498;28;20075;-79
2023/09/05 02:16:01;;;;;;;2.35;2.15;;;;;;;14.59;100.00;152351.97;10520896;28;20125;-80
2023/09/05 02:21:03;;;;;;;2.95;2.03;;;;;;;14.48;100.00;152324.78;10518238;28;20048;-79
2023/09/05 02:26:05;;;;;;;3.05;2.40;;;;;;;14.44;100.00;152313.09;10523272;28;20045;-79
2023/09/05 02:31:08;;;;;;;2.28;2.08;;;;;;;14.42;100.00;152307.88;10518769;28;20047;-79
2023/09/05 02:36:15;;;;;;;2.80;1.98;;;;;;;14.36;100.00;152294.94;10521801;28;20040;-79
2023/09/05 02:41:17;;;;;;;3.60;2.00;;;;;;;14.36;100.00;152293.66;10524154;28;20131;-79
2023/09/05 02:46:20;;;;;;;2.63;2.30;;;;;;;14.36;100.00;152294.94;10523643;28;20037;-79
2023/09/05 02:51:21;;;;;;;3.55;2.20;;;;;;;14.35;100.00;152291.09;10523017;28;20120;-79
2023/09/05 02:56:23;;;;;;;3.10;1.95;;;;;;;14.34;100.00;152289.78;10520487;28;20045;-79
2023/09/05 03:01:25;;;;;;;2.42;2.10;;;;;;;14.34;100.00;152288.44;10515622;28;20040;-79
2023/09/05 03:06:27;;;;;;;2.60;2.33;;;;;;;14.19;100.00;152249.63;10517994;28;20056;-79
2023/09/05 03:11:30;;;;;;;2.40;2.20;;;;;;;14.33;100.00;152285.88;10513466;28;20211;-79
2023/09/05 03:16:32;;;;;;;4.75;2.15;;;;;;;14.39;100.00;152301.44;10514813;28;20063;-80
2023/09/05 03:21:35;;;;;;;2.20;2.00;;;;;;;14.26;100.00;152267.78;10523061;28;20044;-80
2023/09/05 03:26:37;;;;;;;3.58;2.40;;;;;;;14.39;100.00;152302.72;10524815;28;20048;-80
2023/09/05 03:31:40;;;;;;;2.22;2.03;;;;;;;14.29;100.00;152275.50;10520500;28;20041;-80
2023/09/05 03:36:43;;;;;;;2.47;2.28;;;;;;;14.23;100.00;152260.00;10520509;28;20123;-79
2023/09/05 03:41:46;;;;;;;2.67;2.20;;;;;;;14.05;100.00;152214.69;10521361;28;20068;-79
2023/09/05 03:46:48;;;;;;;3.08;2.20;;;;;;;14.08;100.00;152223.75;10523918;28;20075;-80
2023/09/05 03:51:49;;;;;;;2.97;1.98;;;;;;;14.01;100.00;152205.63;10522706;28;20040;-80
2023/09/05 03:56:51;;;;;;;2.17;1.95;;;;;;;14.07;100.00;152221.13;10522170;28;20463;-80
2023/09/05 04:01:53;;;;;;;3.67;2.00;;;;;;;14.04;100.00;152213.41;10519655;28;20045;-79
2023/09/05 04:06:55;;;;;;;4.82;2.42;;;;;;;14.12;100.00;152234.13;10521258;28;20045;-80
2023/09/05 04:11:57;;;;;;;2.53;2.25;;;;;;;14.17;100.00;152244.47;10523764;28;20096;-78
2023/09/05 04:16:59;;;;;;;3.33;2.42;;;;;;;14.22;100.00;152258.69;10528853;28;20032;-81
2023/09/05 04:22:01;;;;;;;3.35;2.35;;;;;;;14.27;100.00;152271.66;10530453;28;20032;-81
2023/09/05 04:27:03;;;;;;;4.35;2.85;;;;;;;14.15;100.00;152240.56;10513497;28;20055;-81
2023/09/05 04:32:05;;;;;;;3.13;2.42;;;;;;;14.22;100.00;152257.41;10522934;28;20052;-80
2023/09/05 04:37:07;;;;;;;2.50;2.03;;;;;;;14.25;100.00;152265.16;10526404;28;20529;-79
2023/09/05 04:42:09;;;;;;;3.85;2.25;;;;;;;14.28;100.00;152274.22;10528486;28;20135;-79
2023/09/05 04:47:20;;;;;;;2.75;2.10;;;;;;;14.43;100.00;152310.47;10530485;28;20092;-79
2023/09/05 04:52:24;;;;;;;2.42;2.22;;;;;;;14.53;100.00;152336.44;10529261;28;20040;-79
2023/09/05 04:57:27;;;;;;;2.53;2.15;;;;;;;14.55;100.00;152341.59;10529790;28;20037;-79
2023/09/05 05:02:31;;;;;;;3.58;1.90;;;;;;;14.49;100.00;152327.38;10529652;28;20040;-79
2023/09/05 05:07:33;;;;;;;2.60;2.13;;;;;;;14.50;100.00;152329.94;10529415;28;20102;-79
2023/09/05 05:12:35;;;;;;;3.13;2.35;;;;;;;14.79;100.00;152402.50;10527196;28;20041;-79
2023/09/05 05:17:37;;;;;;;2.40;2.20;;;;;;;14.68;100.00;152373.97;10522803;28;20049;-79
2023/09/05 05:22:38;;;;;;;2.72;2.53;;;;;;;14.53;100.00;152336.44;10523941;28;20052;-79
2023/09/05 05:27:40;;;;;;;3.28;2.20;;;;;;;14.83;100.00;152412.81;10524344;28;20094;-79
2023/09/05 05:32:42;;;;;;;2.55;2.20;;;;;;;14.99;100.00;152453.00;10518938;28;20052;-80
2023/09/05 05:37:44;;;;;;;2.88;2.25;;;;;;;15.01;100.00;152459.50;10524525;28;20037;-79
2023/09/05 05:42:46;;;;;;;3.33;2.20;;;;;;;15.23;99.94;152513.84;10524985;28;20043;-78
2023/09/05 05:47:48;;;;;;;2.78;2.03;;;;;;;15.29;99.42;152529.44;10523055;28;20037;-80
2023/09/05 05:52:49;;;;;;;3.33;2.15;;;;;;;15.38;99.10;152554.03;10523747;28;20106;-79
2023/09/05 05:57:51;;;;;;;5.18;2.30;;;;;;;15.76;97.20;152648.69;10528285;28;20082;-79
2023/09/05 06:02:55;;;;;;;2.80;1.92;;;;;;;16.20;94.83;152760.16;10529924;28;20047;-79
2023/09/05 06:07:57;;;;;;;3.05;1.77;;;;;;;16.53;90.29;152845.75;10528580;28;20028;-79
2023/09/05 06:12:59;;;;;;;3.20;2.08;;;;;;;16.68;89.92;152882.06;10525110;28;20051;-79
2023/09/05 06:18:02;;;;;;;3.88;2.00;;;;;;;16.88;87.82;152934.00;10527265;28;20049;-79
2023/09/05 06:23:04;;;;;;;2.70;1.70;;;;;;;16.91;88.46;152941.81;10525993;28;20055;-79
2023/09/05 06:28:06;;;;;;;5.80;1.80;;;;;;;16.97;88.22;152956.06;10526734;28;20032;-80
2023/09/05 06:33:08;;;;;;;2.22;1.70;;;;;;;17.02;88.63;152969.03;10508116;28;20048;-80
2023/09/05 06:38:10;;;;;;;2.63;2.08;;;;;;;17.49;83.53;153088.41;10527576;28;20049;-80
2023/09/05 06:43:12;;;;;;;3.17;1.80;;;;;;;17.68;83.40;153136.41;10526260;28;20048;-79
2023/09/05 06:48:14;;;;;;;2.85;1.73;;;;;;;17.80;83.27;153167.63;10527551;28;20445;-79
2023/09/05 06:53:16;;;;;;;1.40;1.30;;;;;;;17.81;83.61;153171.50;10530589;28;20048;-79
2023/09/05 06:58:18;;;;;;;2.47;1.40;;;;;;;18.10;79.83;153244.16;10506642;28;20512;-78
2023/09/05 07:03:30;;;;;;;4.93;1.77;;;;;;;18.38;79.36;153316.91;10523770;28;20136;-79
2023/09/05 07:08:32;;;;;;;1.83;1.30;;;;;;;18.30;80.07;153296.13;10524155;28;20040;-78
2023/09/05 07:13:34;;;;;;;4.00;1.50;;;;;;;18.48;79.77;153340.25;10506218;28;20062;-79
2023/09/05 07:18:36;;;;;;;3.92;1.58;;;;;;;18.90;76.85;153448.06;10525153;28;20044;-79
2023/09/05 07:23:38;;;;;;;1.42;1.10;;;;;;;19.17;73.77;153516.97;10524158;28;20059;-79
2023/09/05 07:28:40;;;;;;;2.33;1.30;;;;;;;18.99;75.28;153471.50;10515777;28;20041;-78
2023/09/05 07:33:42;;;;;;;1.73;1.55;;;;;;;18.97;76.87;153466.28;10512594;28;20056;-78
2023/09/05 07:38:43;;;;;;;1.88;1.27;;;;;;;19.63;69.92;153635.22;10509806;28;20049;-78
2023/09/05 07:43:45;;;;;;;3.72;1.20;;;;;;;19.78;71.13;153671.59;10508325;28;20045;-78
2023/09/05 07:48:47;;;;;;;2.38;1.20;;;;;;;20.30;67.38;153804.22;10507141;28;20064;-77
2023/09/05 07:53:59;;;;;;;2.00;1.30;;;;;;;20.70;65.69;153905.69;10507618;28;20039;-79
2023/09/05 07:59:02;;;;;;;2.28;1.35;;;;;;;20.80;64.45;153931.69;10506835;28;20028;-77
2023/09/05 08:04:04;;;;;;;2.20;1.30;;;;;;;20.98;62.47;153978.47;10509435;28;20045;-78
2023/09/05 08:09:06;;;;;;;1.40;1.30;;;;;;;21.32;60.47;154064.41;10505862;28;20032;-78
2023/09/05 08:14:08;;;;;;;1.38;1.20;;;;;;;21.45;63.50;154098.25;10500899;28;20538;-78
2023/09/05 08:19:10;;;;;;;1.23;0.85;;;;;;;21.58;59.01;154132.06;10500925;28;20047;-77
2023/09/05 08:24:11;;;;;;;3.55;1.10;;;;;;;21.87;57.61;154204.97;10502530;28;20064;-78
2023/09/05 08:29:14;;;;;;;1.20;1.10;;;;;;;22.00;55.03;154237.47;10504598;28;20406;-78
2023/09/05 08:34:16;;;;;;;1.30;0.90;;;;;;;22.20;53.33;154289.59;10501000;28;20041;-78
2023/09/05 08:39:17;;;;;;;1.38;0.95;;;;;;;22.19;53.73;154287.00;10501208;28;20395;-77
2023/09/05 08:44:19;;;;;;;1.13;0.80;;;;;;;22.16;54.14;154279.16;10497062;28;20064;-77
2023/09/05 08:49:21;;;;;;;0.90;0.80;;;;;;;22.36;52.82;154329.97;10499070;28;20072;-77
2023/09/05 08:54:25;;;;;;;1.48;0.90;;;;;;;22.63;51.42;154400.25;10500062;28;20516;-76
2023/09/05 08:59:27;;;;;;;0.82;0.75;;;;;;;22.67;51.10;154410.69;10505367;28;20045;-77
2023/09/05 09:04:29;;;;;;;0.98;0.80;;;;;;;22.75;50.77;154430.19;10507887;28;20559;-77
2023/09/05 09:09:36;;;;;;;1.85;0.68;;;;;;;22.92;51.26;154473.22;10505578;28;20040;-77
2023/09/05 09:14:38;;;;;;;0.75;0.63;;;;;;;22.97;50.57;154484.94;10507004;28;20045;-78
2023/09/05 09:19:40;;;;;;;1.33;0.85;;;;;;;23.28;49.37;154565.66;10513807;28;20058;-78
2023/09/05 09:24:41;;;;;;;1.77;0.90;;;;;;;23.47;48.94;154613.91;10515698;28;20076;-77
2023/09/05 09:29:52;;;;;;;1.20;0.90;;;;;;;23.86;48.70;154712.94;10516617;28;20041;-78
2023/09/05 09:34:55;;;;;;;1.95;1.00;;;;;;;23.91;47.43;154726.00;10513761;28;20132;-77
2023/09/05 09:40:01;;;;;;;3.88;1.08;;;;;;;24.05;47.30;154762.50;10506114;28;20124;-77
2023/09/05 09:45:07;;;;;;;1.40;0.82;;;;;;;24.78;47.04;154947.63;10506179;28;20136;-77
2023/09/05 09:50:11;;;;;;;2.90;1.00;;;;;;;25.30;44.31;155080.69;10505962;28;20058;-76
2023/09/05 09:55:14;;;;;;;1.60;0.90;;;;;;;25.29;46.21;155078.09;10505504;28;20052;-76
2023/09/05 10:00:18;;;;;;;1.52;1.00;;;;;;;25.73;44.45;155190.28;10504293;28;20094;-77
2023/09/05 10:05:23;;;;;;;1.42;0.70;;;;;;;26.15;44.19;155298.56;10503548;28;20425;-76
2023/09/05 10:10:26;;;;;;;1.17;0.63;;;;;;;26.02;42.05;155265.94;10503970;28;20050;-76
2023/09/05 10:15:30;;;;;;;2.58;0.90;;;;;;;26.14;44.29;155295.97;10504237;28;20041;-77
2023/09/05 10:20:33;;;;;;;1.10;0.75;;;;;;;26.15;43.59;155298.56;10503598;28;20041;-77
2023/09/05 10:25:36;;;;;;;1.35;0.82;;;;;;;26.49;42.78;155386.06;10502917;28;20143;-76
2023/09/05 10:30:46;;;;;;;1.67;1.00;;;;;;;26.73;41.84;155446.09;10503319;28;20043;-77
2023/09/05 10:35:48;;;;;;;1.58;1.17;;;;;;;26.77;43.78;155456.53;10502641;28;20048;-76
2023/09/05 10:40:50;;;;;;;1.85;0.85;;;;;;;27.01;42.99;155517.94;10500687;28;20044;-77
2023/09/05 10:46:00;;;;;;;1.33;0.93;;;;;;;26.92;42.07;155495.75;10503202;28;20123;-76
2023/09/05 10:51:11;;;;;;;3.97;1.20;;;;;;;27.13;41.99;155550.56;10500933;28;20064;-77
2023/09/05 10:56:40;;;;;;;1.85;0.90;;;;;;;27.40;41.66;155619.81;10502991;28;20422;-77
2023/09/05 11:01:45;;;;;;;1.20;1.00;;;;;;;27.65;40.94;155683.78;10502943;28;20045;-76
2023/09/05 11:06:55;;;;;;;1.63;1.00;;;;;;;27.45;40.38;155630.22;10503462;28;20391;-76
2023/09/05 11:11:57;;;;;;;2.22;0.90;;;;;;;27.51;41.76;155647.22;10501894;28;20079;-76
2023/09/05 11:17:01;;;;;;;2.45;1.10;;;;;;;27.48;41.06;155639.38;10499903;28;20056;-76
2023/09/05 11:22:11;;;;;;;1.95;1.08;;;;;;;27.60;40.51;155670.72;10501319;28;20491;-77
2023/09/05 11:27:32;;;;;;;1.30;1.20;;;;;;;27.99;39.48;155768.75;10500392;28;20071;-76
2023/09/05 11:32:39;;;;;;;1.27;1.05;;;;;;;27.98;39.07;155766.09;10499972;28;20032;-77
2023/09/05 11:37:41;;;;;;;1.73;1.00;;;;;;;28.26;41.88;155838.00;10501061;28;20043;-77
2023/09/05 11:43:01;;;;;;;;;;;;;;;28.03;39.16;155780.50;10500613;28;20074;-78
2023/09/05 11:48:06;;;;;;;1.13;1.00;;;;;;;27.76;42.02;155709.94;10501200;28;19956;-76
2023/09/05 11:53:11;;;;;;;1.80;1.20;;;;;;;27.66;39.04;155685.09;10500171;28;20452;-76
2023/09/05 11:58:15;;;;;;;;;;;;;;;27.43;39.54;155626.31;10500616;28;20051;-76
2023/09/05 12:03:17;;;;;;;1.10;0.90;;;;;;;26.97;38.74;155508.78;10501010;28;19982;-76
2023/09/05 12:08:20;;;;;;;1.35;1.00;;;;;;;27.17;39.83;155559.72;10499320;28;20044;-76
2023/09/05 12:13:37;;;;;;;1.50;1.00;;;;;;;27.14;39.10;155553.22;10499621;28;20089;-77
2023/09/05 12:18:39;;;;;;;1.20;1.10;;;;;;;26.97;38.15;155507.47;10498888;28;20040;-76
2023/09/05 12:23:46;;;;;;;1.73;1.00;;;;;;;26.82;37.30;155470.91;10499410;28;20044;-77
2023/09/05 12:28:58;;;;;;;1.75;1.10;;;;;;;26.54;38.33;155399.13;10501140;28;20045;-76
2023/09/05 12:33:59;;;;;;;1.40;1.30;;;;;;;26.91;37.83;155493.09;10504310;28;20548;-76
2023/09/05 12:39:02;;;;;;;2.30;1.30;;;;;;;27.05;36.90;155528.31;10507070;28;20443;-76
2023/09/05 12:44:05;;;;;;;1.20;0.98;;;;;;;26.78;37.45;155459.16;10507390;28;20072;-76
2023/09/05 12:49:07;;;;;;;1.77;1.25;;;;;;;27.08;36.74;155536.19;10506451;28;20047;-76
2023/09/05 12:54:09;;;;;;;1.45;1.20;;;;;;;26.75;36.04;155451.34;10506141;28;20040;-76
2023/09/05 12:59:10;;;;;;;2.35;1.20;;;;;;;26.74;36.73;155450.06;10506412;28;20047;-76
2023/09/05 13:04:13;;;;;;;1.85;1.40;;;;;;;26.37;37.04;155354.69;10505545;28;20048;-76
2023/09/05 13:09:14;;;;;;;2.05;1.50;;;;;;;26.12;36.92;155292.09;10504711;28;20048;-76
2023/09/05 13:14:17;;;;;;;1.85;1.30;;;;;;;26.19;38.18;155307.72;10505406;28;20040;-76
2023/09/05 13:19:19;;;;;;;3.30;1.30;;;;;;;26.02;38.65;155265.94;10504348;28;20116;-73
2023/09/05 13:24:21;;;;;;;1.45;1.08;;;;;;;25.96;38.30;155249.00;10504986;28;20064;-74
2023/09/05 13:29:22;;;;;;;2.45;1.27;;;;;;;25.88;38.84;155230.72;10519904;28;20040;-79
2023/09/05 13:34:25;;;;;;;1.60;1.35;;;;;;;25.90;37.84;155234.69;10503743;28;20048;-80
2023/09/05 13:39:27;;;;;;;1.42;1.30;;;;;;;25.59;39.04;155156.34;10520948;28;20048;-79
2023/09/05 13:44:29;;;;;;;2.70;1.40;;;;;;;25.29;39.38;155078.09;10519392;28;20048;-79
2023/09/05 13:49:31;;;;;;;1.90;1.70;;;;;;;25.28;40.36;155075.44;10521854;28;20041;-79
2023/09/05 13:54:37;;;;;;;2.17;1.40;;;;;;;25.23;40.38;155063.72;10517939;28;20048;-78
2023/09/05 13:59:40;;;;;;;2.15;1.40;;;;;;;25.09;40.99;155027.19;10519550;28;20039;-79
2023/09/05 14:04:41;;;;;;;1.85;1.60;;;;;;;25.30;41.33;155080.69;10520178;28;20045;-80
2023/09/05 14:09:44;;;;;;;1.90;1.40;;;;;;;25.26;40.90;155070.25;10518664;28;20414;-78
2023/09/05 14:14:46;;;;;;;1.40;1.17;;;;;;;25.26;41.32;155071.53;10518251;28;20037;-78
2023/09/05 14:19:47;;;;;;;2.15;1.50;;;;;;;25.40;41.91;155106.75;10517771;28;20098;-78
2023/09/05 14:24:49;;;;;;;1.50;1.40;;;;;;;25.38;41.59;155102.84;10498533;28;20040;-77
2023/09/05 14:29:52;;;;;;;1.85;1.52;;;;;;;25.26;41.00;155071.53;10514333;28;20044;-79
2023/09/05 14:34:54;;;;;;;1.73;1.20;;;;;;;25.26;41.80;155071.53;10522251;28;20045;-78
2023/09/05 14:39:57;;;;;;;1.90;1.35;;;;;;;25.31;40.73;155083.28;10517215;28;20573;-79
2023/09/05 14:44:59;;;;;;;3.50;1.45;;;;;;;25.25;41.50;155067.66;10518203;28;20044;-79
2023/09/05 14:50:00;;;;;;;2.13;1.40;;;;;;;25.32;42.13;155087.22;10514377;28;20055;-79
2023/09/05 14:55:06;;;;;;;5.25;1.55;;;;;;;25.23;42.10;155062.41;10511273;28;20054;-78
2023/09/05 15:00:11;;;;;;;2.53;1.60;;;;;;;25.16;42.38;155046.78;10511439;28;20067;-76
2023/09/05 15:05:14;;;;;;;1.33;1.23;;;;;;;25.01;42.83;155007.56;10504286;28;20102;-76
2023/09/05 15:10:16;;;;;;;1.77;1.50;;;;;;;25.00;43.07;155003.69;10485787;28;20556;-75
2023/09/05 15:15:18;;;;;;;2.08;1.27;;;;;;;24.93;43.23;154986.75;10503145;28;20084;-75
2023/09/05 15:20:20;;;;;;;2.10;1.67;;;;;;;24.98;41.54;154999.78;10503618;28;20064;-76
2023/09/05 15:25:22;;;;;;;2.38;1.45;;;;;;;25.05;42.27;155018.00;10501818;28;20048;-76
2023/09/05 15:30:24;;;;;;;2.13;1.60;;;;;;;24.79;42.69;154950.22;10502608;28;20454;-75
2023/09/05 15:35:27;;;;;;;1.88;1.48;;;;;;;24.82;42.96;154959.34;10501762;28;20040;-75
2023/09/05 15:40:29;;;;;;;1.95;1.73;;;;;;;24.76;42.44;154943.72;10501849;28;20402;-76
2023/09/05 15:45:31;;;;;;;3.22;1.65;;;;;;;24.71;42.86;154930.69;10503125;28;20498;-76
2023/09/05 15:50:33;;;;;;;2.53;1.70;;;;;;;24.59;43.21;154900.69;10501060;28;20064;-76
2023/09/05 15:55:35;;;;;;;1.60;1.40;;;;;;;24.61;43.60;154904.59;10501507;28;20520;-76
2023/09/05 16:00:37;;;;;;;3.63;1.73;;;;;;;24.44;43.77;154860.25;10501952;28;20468;-76
2023/09/05 16:05:39;;;;;;;2.13;1.40;;;;;;;24.47;44.42;154869.41;10501914;28;20071;-75
2023/09/05 16:10:41;;;;;;;1.52;1.42;;;;;;;24.29;44.39;154822.44;10500935;28;20033;-75
2023/09/05 16:15:43;;;;;;;3.35;1.60;;;;;;;24.28;43.47;154819.81;10501698;28;20041;-75
2023/09/05 16:20:45;;;;;;;2.25;1.65;;;;;;;24.27;43.71;154817.22;10501064;28;20074;-75
2023/09/05 16:26:00;;;;;;;2.38;1.60;;;;;;;24.13;44.93;154783.34;10503060;28;20372;-77
2023/09/05 16:31:02;;;;;;;1.77;1.67;;;;;;;24.00;44.97;154748.16;10501740;28;20043;-76
2023/09/05 16:36:07;;;;;;;1.85;1.73;;;;;;;24.00;44.58;154748.16;10499256;28;20049;-76
2023/09/05 16:41:10;;;;;;;3.90;1.88;;;;;;;23.84;45.02;154707.75;10500258;28;20041;-76
2023/09/05 16:46:16;;;;;;;2.20;1.50;;;;;;;23.73;45.21;154679.06;10500777;28;20486;-76
2023/09/05 16:51:24;;;;;;;2.60;1.85;;;;;;;23.58;46.20;154641.25;10499287;28;20037;-76
2023/09/05 16:56:26;;;;;;;2.35;1.90;;;;;;;23.27;48.11;154561.78;10500077;28;20048;-76
2023/09/05 17:01:29;;;;;;;2.22;2.03;;;;;;;23.20;47.77;154543.53;10497674;28;20495;-76
2023/09/05 17:06:33;;;;;;;3.30;1.75;;;;;;;23.23;47.77;154551.34;10498076;28;20083;-76
2023/09/05 17:11:35;;;;;;;11.18;2.22;;;;;;;23.24;48.43;154553.94;10498058;28;20036;-76
2023/09/05 17:16:37;;;;;;;2.65;1.80;;;;;;;23.00;49.02;154494.06;10497017;28;20041;-76
2023/09/05 17:21:39;;;;;;;2.60;2.08;;;;;;;22.89;48.79;154466.72;10502685;28;20123;-76
2023/09/05 17:26:41;;;;;;;3.03;1.80;;;;;;;22.92;48.06;154474.50;10506339;28;20387;-76
2023/09/05 17:31:43;;;;;;;3.65;2.38;;;;;;;22.69;49.35;154413.28;10505938;28;20068;-76
2023/09/05 17:36:45;;;;;;;2.75;1.67;;;;;;;22.42;49.96;154345.56;10505307;28;20114;-76
2023/09/05 17:41:47;;;;;;;2.13;1.90;;;;;;;22.19;51.06;154285.72;10504454;28;20048;-76
2023/09/05 17:46:52;;;;;;;3.20;2.08;;;;;;;22.02;51.63;154243.97;10505202;28;20076;-76
2023/09/05 17:51:54;;;;;;;3.20;2.33;;;;;;;21.75;52.38;154173.72;10504865;28;20040;-76
2023/09/05 17:56:56;;;;;;;2.85;2.10;;;;;;;21.51;53.29;154112.53;10505370;28;20044;-76
2023/09/05 18:01:58;;;;;;;2.13;1.92;;;;;;;21.29;54.14;154056.53;10503019;28;20041;-76
2023/09/05 18:07:00;;;;;;;2.10;1.90;;;;;;;21.22;54.21;154039.66;10504056;28;20455;-76
2023/09/05 18:12:02;;;;;;;2.53;2.28;;;;;;;21.12;55.05;154014.94;10487497;28;20139;-76
2023/09/05 18:17:04;;;;;;;2.45;2.25;;;;;;;20.81;56.12;153934.31;10505975;28;20048;-78
2023/09/05 18:22:06;;;;;;;4.68;2.53;;;;;;;20.56;56.76;153871.88;10506030;28;20040;-76
2023/09/05 18:27:10;;;;;;;2.40;2.20;;;;;;;20.32;57.42;153809.38;10505406;28;20049;-77
2023/09/05 18:32:12;;;;;;;2.40;2.20;;;;;;;20.16;58.46;153769.13;10504037;28;20041;-77
2023/09/05 18:37:15;;;;;;;2.55;2.35;;;;;;;20.07;59.34;153747.00;10504085;28;20139;-77
2023/09/05 18:42:17;;;;;;;2.97;2.65;;;;;;;19.97;60.27;153721.03;10503472;28;20090;-77
2023/09/05 18:47:18;;;;;;;2.85;2.28;;;;;;;19.75;62.01;153665.13;10503150;28;20041;-76
2023/09/05 18:52:20;;;;;;;4.22;2.60;;;;;;;19.56;62.35;153616.97;10503861;28;20040;-77
2023/09/05 18:57:22;;;;;;;2.47;2.20;;;;;;;19.55;62.50;153614.38;10503115;28;20522;-77
2023/09/05 19:02:27;;;;;;;3.42;2.33;;;;;;;19.55;62.91;153614.38;10504324;28;20040;-77
2023/09/05 19:07:30;;;;;;;4.47;3.10;;;;;;;19.52;64.11;153606.63;10505080;28;20036;-77
2023/09/05 19:12:32;;;;;;;3.58;3.22;;;;;;;19.53;66.57;153609.22;10503334;28;20123;-75
2023/09/05 19:17:34;;;;;;;3.97;3.00;;;;;;;19.45;66.88;153588.41;10502035;28;20048;-77
2023/09/05 19:22:38;;;;;;;3.22;2.92;;;;;;;19.34;67.56;153561.09;10501596;28;20402;-77
2023/09/05 19:27:43;;;;;;;3.25;2.90;;;;;;;19.02;69.06;153479.25;10509732;28;20041;-79
2023/09/05 19:32:47;;;;;;;;;;;;;;;18.73;69.80;153405.25;10528741;28;20045;-80
2023/09/05 19:37:49;;;;;;;2.90;2.65;;;;;;;18.53;70.07;153353.25;10521252;28;19920;-80
2023/09/05 19:42:52;;;;;;;4.00;3.05;;;;;;;18.51;71.89;153349.38;10518344;28;20417;-81
2023/09/05 19:47:54;;;;;;;4.40;4.00;;;;;;;18.58;73.15;153367.50;10518481;28;20356;-80
2023/09/05 19:52:56;;;;;;;6.40;3.88;;;;;;;18.46;73.05;153336.38;10518088;28;20044;-79
2023/09/05 19:57:58;;;;;;;4.35;3.75;;;;;;;18.17;75.45;153261.06;10502911;28;20049;-80
2023/09/05 20:03:01;;;;;;;3.85;3.55;;;;;;;17.92;76.40;153198.72;10518099;28;20063;-78
2023/09/05 20:08:04;;;;;;;3.50;3.20;;;;;;;17.72;76.91;153146.78;10519329;28;20548;-80
2023/09/05 20:13:06;;;;;;;4.53;3.75;;;;;;;18.04;78.14;153229.91;10517101;28;20044;-79
2023/09/05 20:18:08;;;;;;;4.47;4.07;;;;;;;17.85;78.47;153180.59;10517391;28;20441;-80
2023/09/05 20:23:09;;;;;;;4.25;3.95;;;;;;;17.85;78.40;153181.88;10520750;28;20037;-79
2023/09/05 20:28:11;;;;;;;5.00;4.60;;;;;;;17.54;79.92;153102.66;10521079;28;20052;-79
2023/09/05 20:33:13;;;;;;;4.97;4.47;;;;;;;17.44;81.71;153076.69;10514858;28;20466;-80
2023/09/05 20:38:15;;;;;;;5.10;4.70;;;;;;;17.18;82.99;153009.22;10514857;28;20070;-78
2023/09/05 20:43:17;;;;;;;5.43;4.90;;;;;;;17.07;84.29;152982.00;10514736;28;20037;-78
2023/09/05 20:48:19;;;;;;;5.93;5.43;;;;;;;16.90;85.01;152940.47;10513905;28;20477;-79
2023/09/05 20:53:22;;;;;;;4.93;4.53;;;;;;;16.79;86.06;152910.66;10500638;28;20045;-79
2023/09/05 20:58:25;;;;;;;5.43;5.00;;;;;;;16.83;86.84;152922.34;10524196;28;20055;-79
2023/09/05 21:03:28;;;;;;;6.20;5.70;;;;;;;16.76;87.14;152902.88;10528792;28;20079;-79
2023/09/05 21:08:30;;;;;;;6.38;5.88;;;;;;;16.65;87.65;152875.59;10526468;28;20044;-79
2023/09/05 21:13:32;;;;;;;6.15;5.57;;;;;;;16.44;88.78;152822.41;10525340;28;20048;-79
2023/09/05 21:18:37;;;;;;;6.32;5.72;;;;;;;16.28;89.94;152780.91;10526495;28;20048;-79
2023/09/05 21:23:39;;;;;;;5.88;5.38;;;;;;;16.18;90.13;152756.28;10507597;28;20494;-79
2023/09/05 21:28:42;;;;;;;6.97;6.28;;;;;;;16.13;90.92;152744.63;10525923;28;20036;-79
2023/09/05 21:33:44;;;;;;;6.50;5.90;;;;;;;16.08;91.50;152730.38;10522992;28;20045;-79
2023/09/05 21:38:46;;;;;;;5.65;5.13;;;;;;;16.07;90.56;152729.09;10524744;28;20044;-79
2023/09/05 21:43:48;;;;;;;6.63;6.03;;;;;;;16.14;90.90;152747.19;10524177;28;20064;-79
2023/09/05 21:48:50;;;;;;;6.45;5.85;;;;;;;15.95;92.67;152696.66;10523429;28;20056;-79
2023/09/05 21:53:52;;;;;;;6.20;5.60;;;;;;;15.83;92.44;152668.13;10522016;28;20380;-79
2023/09/05 21:58:53;;;;;;;8.20;7.53;;;;;;;15.72;92.33;152639.66;10523272;28;20506;-79
2023/09/05 22:03:55;;;;;;;6.53;6.03;;;;;;;15.80;91.96;152660.34;10505955;28;20044;-79
2023/09/05 22:08:58;;;;;;;6.78;6.07;;;;;;;15.89;93.15;152682.38;10506511;28;20044;-79
2023/09/05 22:14:00;;;;;;;7.63;6.93;;;;;;;15.94;93.13;152695.38;10522108;28;20048;-79
2023/09/05 22:19:15;;;;;;;7.88;7.07;;;;;;;15.93;92.73;152692.75;10523632;28;20037;-79
2023/09/05 22:24:17;;;;;;;10.40;9.60;;;;;;;16.01;92.62;152712.22;10521046;28;20051;-79
2023/09/05 22:29:19;;;;;;;11.82;10.75;;;;;;;15.80;94.05;152659.03;10504538;28;20448;-79
2023/09/05 22:34:21;;;;;;;11.85;10.57;;;;;;;15.66;94.80;152622.78;10521224;28;20075;-79
2023/09/05 22:39:23;;;;;;;9.68;8.88;;;;;;;15.55;95.45;152595.53;10521718;28;20053;-79
2023/09/05 22:44:26;;;;;;;9.75;8.90;;;;;;;15.28;96.34;152526.84;10521151;28;20059;-79
2023/09/05 22:49:28;;;;;;;10.73;9.68;;;;;;;15.28;97.53;152526.84;10503481;28;20422;-78
2023/09/05 22:54:30;;;;;;;10.23;9.25;;;;;;;15.17;97.67;152498.34;10515352;28;20075;-79
2023/09/05 22:59:32;;;;;;;9.88;8.98;;;;;;;15.32;98.42;152538.53;10514977;28;20044;-78
2023/09/05 23:04:33;;;;;;;12.77;8.10;;;;;;;15.24;98.66;152516.50;10513281;28;20094;-78
2023/09/05 23:09:37;;;;;;;8.35;7.55;;;;;;;15.25;98.41;152520.34;10513651;28;20414;-79
2023/09/05 23:14:39;;;;;;;8.13;7.22;;;;;;;15.24;98.32;152516.50;10515362;28;20044;-78